createdAt,value
2023-07-02T00:00:09.183Z,69.48
2023-07-02T00:02:37.542Z,69.69
2023-07-02T00:05:04.658Z,69.54
2023-07-02T00:07:31.308Z,69.87
2023-07-02T00:09:58.193Z,69.82
2023-07-02T00:12:24.897Z,70.41
2023-07-02T00:14:54.291Z,69.73
2023-07-02T00:17:21.835Z,69.57
2023-07-02T00:19:53.237Z,69.89
2023-07-02T00:22:20.584Z,69.69
2023-07-02T00:24:47.319Z,69.84
2023-07-02T00:27:14.037Z,70.30
2023-07-02T00:29:40.633Z,69.30
2023-07-02T00:32:07.409Z,69.31
2023-07-02T00:34:34.005Z,69.29
2023-07-02T00:37:00.628Z,68.66
2023-07-02T00:39:27.267Z,69.01
2023-07-02T00:41:53.881Z,69.46
2023-07-02T00:44:21.963Z,69.29
2023-07-02T00:46:51.772Z,68.47
2023-07-02T00:49:18.516Z,68.66
2023-07-02T00:51:45.121Z,68.53
2023-07-02T00:54:11.735Z,68.21
2023-07-02T00:56:38.400Z,68.21
2023-07-02T00:59:05.038Z,68.55
2023-07-02T01:01:34.711Z,68.11
2023-07-02T01:04:04.079Z,69.15
2023-07-02T01:06:35.796Z,69.01
2023-07-02T01:09:06.777Z,69.49
2023-07-02T01:11:47.839Z,69.43
2023-07-02T01:14:35.100Z,69.48
2023-07-02T01:17:04.976Z,69.70
2023-07-02T01:19:35.017Z,70.16
2023-07-02T01:22:02.970Z,69.94
2023-07-02T01:24:29.800Z,69.98
2023-07-02T01:26:57.495Z,70.19
2023-07-02T01:29:24.135Z,70.05
2023-07-02T01:31:50.823Z,69.87
2023-07-02T01:34:17.474Z,69.59
2023-07-02T01:36:44.089Z,70.05
2023-07-02T01:39:10.720Z,70.03
2023-07-02T01:41:54.632Z,69.66
2023-07-02T01:44:22.894Z,69.46
2023-07-02T01:46:52.539Z,69.58
2023-07-02T01:49:20.638Z,68.86
2023-07-02T01:51:53.595Z,68.96
2023-07-02T01:54:21.211Z,69.17
2023-07-02T01:56:48.181Z,69.05
2023-07-02T01:59:15.595Z,68.70
2023-07-02T02:01:42.632Z,68.48
2023-07-02T02:04:11.068Z,68.66
2023-07-02T02:06:38.645Z,68.50
2023-07-02T02:09:06.325Z,68.87
2023-07-02T02:11:34.440Z,68.07
2023-07-02T02:14:02.555Z,68.31
2023-07-02T02:16:30.018Z,68.28
2023-07-02T02:18:56.800Z,68.25
2023-07-02T02:21:23.788Z,67.57
2023-07-02T02:23:50.427Z,67.87
2023-07-02T02:26:17.176Z,67.96
2023-07-02T02:28:44.288Z,67.63
2023-07-02T02:31:11.106Z,67.93
2023-07-02T02:33:37.862Z,66.85
2023-07-02T02:36:04.736Z,67.47
2023-07-02T02:38:31.494Z,67.40
2023-07-02T02:40:58.145Z,67.53
2023-07-02T02:43:25.008Z,67.13
2023-07-02T02:45:51.619Z,67.29
2023-07-02T02:48:18.254Z,66.69
2023-07-02T02:50:44.887Z,67.59
2023-07-02T02:53:11.961Z,67.81
2023-07-02T02:55:38.580Z,67.56
2023-07-02T02:58:05.337Z,67.41
2023-07-02T03:00:32.029Z,67.64
2023-07-02T03:02:59.979Z,67.34
2023-07-02T03:05:27.338Z,67.66
2023-07-02T03:07:54.211Z,67.78
2023-07-02T03:10:21.014Z,67.60
2023-07-02T03:12:48.909Z,67.26
2023-07-02T03:15:15.687Z,67.58
2023-07-02T03:17:42.342Z,67.34
2023-07-02T03:20:09.549Z,67.83
2023-07-02T03:22:36.149Z,67.85
2023-07-02T03:25:02.998Z,68.19
2023-07-02T03:27:29.665Z,67.55
2023-07-02T03:29:56.926Z,67.64
2023-07-02T03:32:23.664Z,68.54
2023-07-02T03:34:50.334Z,67.81
2023-07-02T03:37:16.965Z,67.89
2023-07-02T03:39:43.586Z,68.09
2023-07-02T03:42:10.231Z,67.48
2023-07-02T03:44:36.839Z,68.15
2023-07-02T03:47:03.524Z,68.12
2023-07-02T03:49:32.623Z,67.96
2023-07-02T03:51:59.293Z,68.25
2023-07-02T03:54:25.899Z,67.49
2023-07-02T03:56:52.525Z,67.62
2023-07-02T03:59:20.397Z,68.23
2023-07-02T04:01:47.018Z,67.96
2023-07-02T04:04:13.867Z,67.34
2023-07-02T04:06:40.511Z,68.15
2023-07-02T04:09:07.108Z,67.60
2023-07-02T04:11:33.861Z,67.47
2023-07-02T04:14:00.446Z,67.70
2023-07-02T04:16:27.111Z,68.14
2023-07-02T04:18:53.722Z,67.92
2023-07-02T04:21:20.309Z,67.50
2023-07-02T04:23:46.913Z,67.69
2023-07-02T04:26:49.935Z,68.19
2023-07-02T04:29:00.369Z,68.06
2023-07-02T04:31:27.492Z,67.79
2023-07-02T04:33:54.163Z,68.03
2023-07-02T04:36:20.908Z,67.83
2023-07-02T04:38:47.576Z,67.94
2023-07-02T04:41:14.188Z,67.37
2023-07-02T04:43:40.816Z,68.15
2023-07-02T04:46:08.975Z,67.65
2023-07-02T04:48:35.979Z,67.93
2023-07-02T04:51:02.626Z,67.92
2023-07-02T04:53:29.293Z,68.21
2023-07-02T04:55:57.972Z,68.11
2023-07-02T04:58:24.699Z,67.71
2023-07-02T05:00:51.706Z,67.72
2023-07-02T05:03:18.488Z,67.36
2023-07-02T05:05:45.203Z,67.29
2023-07-02T05:08:11.915Z,67.58
2023-07-02T05:10:38.553Z,67.95
2023-07-02T05:13:05.136Z,68.61
2023-07-02T05:15:31.757Z,68.28
2023-07-02T05:17:58.548Z,67.64
2023-07-02T05:20:25.369Z,67.70
2023-07-02T05:22:51.994Z,67.46
2023-07-02T05:25:18.712Z,67.36
2023-07-02T05:27:45.319Z,68.16
2023-07-02T05:30:12.487Z,67.80
2023-07-02T05:32:40.733Z,67.79
2023-07-02T05:35:07.707Z,67.45
2023-07-02T05:37:34.408Z,66.83
2023-07-02T05:40:01.005Z,66.51
2023-07-02T05:42:27.601Z,66.67
2023-07-02T05:44:54.200Z,66.00
2023-07-02T05:47:20.828Z,66.08
2023-07-02T05:49:47.652Z,65.83
2023-07-02T05:52:14.356Z,66.44
2023-07-02T05:54:42.401Z,65.80
2023-07-02T05:57:09.193Z,65.42
2023-07-02T05:59:36.028Z,64.82
2023-07-02T06:02:02.720Z,65.08
2023-07-02T06:04:29.478Z,64.99
2023-07-02T06:06:56.216Z,63.96
2023-07-02T06:09:22.911Z,63.62
2023-07-02T06:11:49.617Z,63.48
2023-07-02T06:14:16.305Z,63.38
2023-07-02T06:16:43.648Z,63.22
2023-07-02T06:19:10.634Z,61.77
2023-07-02T06:21:38.074Z,61.81
2023-07-02T06:24:05.146Z,61.64
2023-07-02T06:26:33.515Z,60.85
2023-07-02T06:29:00.436Z,59.90
2023-07-02T06:31:27.638Z,60.17
2023-07-02T06:33:54.520Z,60.62
2023-07-02T06:36:21.396Z,59.11
2023-07-02T06:38:48.080Z,57.89
2023-07-02T06:41:15.602Z,58.27
2023-07-02T06:43:45.445Z,57.97
2023-07-02T06:46:13.280Z,57.74
2023-07-02T06:48:40.151Z,57.91
2023-07-02T06:51:08.283Z,57.63
2023-07-02T06:53:35.396Z,57.54
2023-07-02T06:56:02.096Z,57.29
2023-07-02T06:58:28.797Z,58.44
2023-07-02T07:00:57.973Z,57.99
2023-07-02T07:03:25.277Z,56.74
2023-07-02T07:05:51.925Z,58.00
2023-07-02T07:08:18.577Z,58.04
2023-07-02T07:10:46.733Z,58.96
2023-07-02T07:13:13.936Z,58.76
2023-07-02T07:15:40.644Z,58.52
2023-07-02T07:18:10.155Z,57.44
2023-07-02T07:20:37.271Z,56.15
2023-07-02T07:23:04.739Z,55.68
2023-07-02T07:25:31.572Z,54.16
2023-07-02T07:28:00.685Z,53.02
2023-07-02T07:30:27.379Z,49.98
2023-07-02T07:32:54.566Z,47.48
2023-07-02T07:35:23.065Z,47.96
2023-07-02T07:37:50.811Z,48.47
2023-07-02T07:40:17.757Z,49.01
2023-07-02T07:42:44.576Z,48.87
2023-07-02T07:45:12.648Z,49.02
2023-07-02T07:47:50.383Z,47.87
2023-07-02T07:50:17.213Z,47.94
2023-07-02T07:52:44.438Z,48.71
2023-07-02T07:55:11.226Z,48.67
2023-07-02T07:57:38.735Z,48.06
2023-07-02T08:00:09.273Z,47.04
2023-07-02T08:02:36.062Z,45.02
2023-07-02T08:05:04.327Z,45.73
2023-07-02T08:07:32.917Z,46.74
2023-07-02T08:10:00.250Z,47.58
2023-07-02T08:12:30.734Z,46.78
2023-07-02T08:14:57.876Z,46.42
2023-07-02T08:17:24.659Z,44.99
2023-07-02T08:19:51.436Z,44.17
2023-07-02T08:22:18.153Z,46.18
2023-07-02T08:24:44.870Z,45.14
2023-07-02T08:27:15.040Z,46.13
2023-07-02T08:29:42.088Z,45.71
2023-07-02T08:32:09.014Z,45.07
2023-07-02T08:34:35.741Z,45.46
2023-07-02T08:37:02.506Z,43.99
2023-07-02T08:39:29.251Z,42.50
2023-07-02T08:41:56.064Z,41.64
2023-07-02T08:44:23.598Z,42.38
2023-07-02T08:46:52.206Z,42.84
2023-07-02T08:49:19.354Z,42.02
2023-07-02T08:51:47.328Z,42.89
2023-07-02T08:54:15.510Z,42.88
2023-07-02T08:56:43.086Z,43.27
2023-07-02T08:59:12.033Z,45.29
2023-07-02T09:01:53.316Z,44.43
2023-07-02T09:04:20.676Z,43.32
2023-07-02T09:06:52.445Z,43.85
2023-07-02T09:09:19.361Z,44.85
2023-07-02T09:11:52.262Z,44.39
2023-07-02T09:14:29.728Z,44.87
2023-07-02T09:17:10.583Z,44.54
2023-07-02T09:19:38.090Z,44.34
2023-07-02T09:22:07.020Z,43.27
2023-07-02T09:24:33.734Z,43.68
2023-07-02T09:27:02.052Z,43.79
2023-07-02T09:29:31.005Z,44.97
2023-07-02T09:32:10.281Z,44.88
2023-07-02T09:34:40.005Z,45.14
2023-07-02T09:37:07.091Z,44.75
2023-07-02T09:39:35.857Z,44.31
2023-07-02T09:42:06.396Z,45.16
2023-07-02T09:44:36.756Z,45.59
2023-07-02T09:47:08.467Z,44.95
2023-07-02T09:49:40.199Z,45.56
2023-07-02T09:52:10.125Z,44.38
2023-07-02T09:54:37.806Z,44.34
2023-07-02T09:57:05.447Z,44.84
2023-07-02T09:59:32.109Z,42.88
2023-07-02T10:01:59.497Z,43.31
2023-07-02T10:04:26.640Z,43.25
2023-07-02T10:06:58.596Z,43.15
2023-07-02T10:09:43.170Z,44.07
2023-07-02T10:12:26.884Z,43.16
2023-07-02T10:14:56.750Z,41.68
2023-07-02T10:17:33.029Z,41.95
2023-07-02T10:20:02.032Z,42.42
2023-07-02T10:22:29.194Z,42.86
2023-07-02T10:25:01.944Z,41.54
2023-07-02T10:27:42.648Z,41.78
2023-07-02T10:30:11.057Z,41.47
2023-07-02T10:32:41.957Z,40.89
2023-07-02T10:35:18.979Z,41.37
2023-07-02T10:37:46.453Z,42.21
2023-07-02T10:40:13.856Z,41.34
2023-07-02T10:42:48.227Z,42.83
2023-07-02T10:45:15.299Z,42.49
2023-07-02T10:47:44.345Z,41.72
2023-07-02T10:50:17.357Z,43.93
2023-07-02T10:52:47.612Z,42.24
2023-07-02T10:55:21.423Z,43.51
2023-07-02T10:57:52.755Z,42.07
2023-07-02T11:00:19.949Z,40.97
2023-07-02T11:02:46.884Z,41.25
2023-07-02T11:05:14.114Z,40.70
2023-07-02T11:07:43.825Z,41.39
2023-07-02T11:10:13.039Z,40.62
2023-07-02T11:12:39.938Z,40.16
2023-07-02T11:15:10.431Z,40.40
2023-07-02T11:17:37.387Z,39.57
2023-07-02T11:20:06.564Z,40.36
2023-07-02T11:22:38.803Z,38.19
2023-07-02T11:25:21.262Z,39.16
2023-07-02T11:35:53.786Z,36.27
2023-07-02T11:38:20.448Z,36.90
2023-07-02T11:40:49.672Z,37.14
2023-07-02T11:43:17.192Z,36.79
2023-07-02T11:45:44.748Z,36.59
2023-07-02T11:48:11.477Z,36.19
2023-07-02T11:50:38.936Z,37.13
2023-07-02T11:53:06.007Z,38.32
2023-07-02T11:55:32.844Z,37.82
2023-07-02T11:57:59.632Z,37.83
2023-07-02T12:00:27.196Z,39.25
2023-07-02T12:02:54.070Z,39.15
2023-07-02T12:05:23.168Z,39.38
2023-07-02T12:07:49.996Z,38.09
2023-07-02T12:10:16.784Z,38.92
2023-07-02T12:12:43.597Z,39.07
2023-07-02T12:15:13.085Z,38.83
2023-07-02T12:17:39.831Z,38.40
2023-07-02T12:20:07.006Z,38.66
2023-07-02T12:22:33.821Z,39.51
2023-07-02T12:25:00.836Z,39.62
2023-07-02T12:27:28.465Z,38.56
2023-07-02T12:29:55.236Z,39.75
2023-07-02T12:32:22.156Z,39.47
2023-07-02T12:34:49.070Z,39.36
2023-07-02T12:37:19.301Z,39.31
2023-07-02T12:39:46.037Z,39.19
2023-07-02T12:42:12.772Z,38.46
2023-07-02T12:44:39.539Z,39.45
2023-07-02T12:47:06.645Z,38.43
2023-07-02T12:49:33.391Z,39.11
2023-07-02T12:52:00.153Z,39.99
2023-07-02T12:54:27.811Z,39.44
2023-07-02T12:56:55.002Z,39.78
2023-07-02T12:59:21.795Z,39.24
2023-07-02T13:01:49.268Z,38.97
2023-07-02T13:04:16.691Z,38.68
2023-07-02T13:06:46.036Z,39.24
2023-07-02T13:09:12.873Z,39.49
2023-07-02T13:11:39.712Z,39.53
2023-07-02T13:14:06.475Z,39.52
2023-07-02T13:16:33.211Z,40.16
2023-07-02T13:19:02.815Z,40.18
2023-07-02T13:21:30.168Z,41.56
2023-07-02T13:23:57.091Z,41.41
2023-07-02T13:26:23.882Z,41.51
2023-07-02T13:28:50.673Z,41.27
2023-07-02T13:31:17.699Z,40.89
2023-07-02T13:33:44.575Z,40.58
2023-07-02T13:36:11.798Z,40.84
2023-07-02T13:38:38.672Z,42.42
2023-07-02T13:41:05.426Z,41.04
2023-07-02T13:43:34.085Z,42.43
2023-07-02T13:46:00.929Z,41.57
2023-07-02T13:48:28.910Z,41.95
2023-07-02T13:50:55.887Z,43.07
2023-07-02T13:53:22.640Z,41.60
2023-07-02T13:55:49.788Z,42.50
2023-07-02T13:58:28.165Z,42.22
2023-07-02T14:00:56.533Z,42.14
2023-07-02T14:03:23.436Z,41.50
2023-07-02T14:05:51.848Z,41.11
2023-07-02T14:08:19.016Z,41.08
2023-07-02T14:10:45.841Z,40.61
2023-07-02T14:13:12.716Z,40.77
2023-07-02T14:15:39.497Z,40.92
2023-07-02T14:18:07.066Z,41.13
2023-07-02T14:20:33.852Z,41.36
2023-07-02T14:23:00.669Z,40.87
2023-07-02T14:25:40.730Z,40.83
2023-07-02T14:28:14.125Z,41.54
2023-07-02T14:30:40.937Z,40.96
2023-07-02T14:33:07.841Z,41.04
2023-07-02T14:35:35.770Z,41.00
2023-07-02T14:38:02.562Z,40.21
2023-07-02T14:40:29.504Z,40.71
2023-07-02T14:42:56.296Z,41.77
2023-07-02T14:45:23.025Z,42.21
2023-07-02T14:47:49.782Z,41.06
2023-07-02T14:50:19.364Z,41.45
2023-07-02T14:52:46.506Z,40.80
2023-07-02T14:55:13.444Z,41.22
2023-07-02T14:57:40.170Z,40.64
2023-07-02T15:00:07.670Z,41.30
2023-07-02T15:02:34.480Z,40.92
2023-07-02T15:05:01.561Z,40.42
2023-07-02T15:07:28.305Z,40.20
2023-07-02T15:09:55.049Z,40.36
2023-07-02T15:12:21.759Z,39.36
2023-07-02T15:14:48.508Z,40.15
2023-07-02T15:17:17.877Z,39.98
2023-07-02T15:19:44.673Z,39.75
2023-07-02T15:22:11.383Z,39.21
2023-07-02T15:24:38.137Z,38.57
2023-07-02T15:27:05.263Z,39.22
2023-07-02T15:29:32.007Z,38.24
2023-07-02T15:34:40.700Z,39.13
2023-07-02T15:37:10.572Z,38.76
2023-07-02T15:39:37.408Z,38.87
2023-07-02T15:42:04.480Z,38.79
2023-07-02T15:47:13.816Z,39.77
2023-07-02T15:49:40.697Z,39.28
2023-07-02T15:52:08.373Z,39.19
2023-07-02T15:54:35.229Z,39.22
2023-07-02T15:57:01.887Z,38.50
2023-07-02T15:59:28.673Z,39.03
2023-07-02T16:01:55.301Z,39.27
2023-07-02T16:04:22.318Z,39.42
2023-07-02T16:06:49.625Z,39.85
2023-07-02T16:09:16.656Z,39.18
2023-07-02T16:11:43.489Z,39.20
2023-07-02T16:14:13.017Z,39.23
2023-07-02T16:16:44.523Z,39.62
2023-07-02T16:19:14.144Z,38.76
2023-07-02T16:21:41.801Z,37.24
2023-07-02T16:24:31.152Z,37.17
2023-07-02T16:26:58.772Z,38.81
2023-07-02T16:29:28.436Z,36.78
2023-07-02T16:31:57.158Z,37.17
2023-07-02T16:34:25.053Z,38.08
2023-07-02T16:36:52.417Z,37.13
2023-07-02T16:39:21.887Z,37.51
2023-07-02T16:41:50.214Z,38.11
2023-07-02T16:44:28.406Z,37.99
2023-07-02T16:46:56.667Z,38.17
2023-07-02T16:49:27.923Z,38.37
2023-07-02T16:51:56.119Z,38.42
2023-07-02T16:54:24.619Z,38.24
2023-07-02T16:57:09.496Z,37.95
2023-07-02T16:59:38.851Z,38.17
2023-07-02T17:02:09.111Z,37.65
2023-07-02T17:04:35.861Z,37.81
2023-07-02T17:07:03.090Z,38.01
2023-07-02T17:09:35.744Z,38.06
2023-07-02T17:12:05.160Z,38.78
2023-07-02T17:14:34.783Z,38.09
2023-07-02T17:17:05.709Z,38.55
2023-07-02T17:19:38.183Z,38.09
2023-07-02T17:22:06.859Z,37.45
2023-07-02T17:24:39.570Z,37.57
2023-07-02T17:27:07.902Z,37.75
2023-07-02T17:29:35.001Z,38.58
2023-07-02T17:32:04.815Z,38.53
2023-07-02T17:34:33.384Z,37.70
2023-07-02T17:37:02.581Z,38.10
2023-07-02T17:39:31.438Z,37.77
2023-07-02T17:41:59.424Z,38.10
2023-07-02T17:44:30.073Z,38.38
2023-07-02T17:46:59.879Z,38.21
2023-07-02T17:49:29.467Z,38.32
2023-07-02T17:51:56.364Z,38.76
2023-07-02T17:54:24.003Z,38.70
2023-07-02T17:56:52.624Z,38.99
2023-07-02T17:59:20.969Z,38.93
2023-07-02T18:01:53.457Z,38.88
2023-07-02T18:04:21.816Z,39.62
2023-07-02T18:06:48.625Z,39.35
2023-07-02T18:09:17.652Z,39.00
2023-07-02T18:11:44.438Z,39.38
2023-07-02T18:14:11.153Z,39.24
2023-07-02T18:16:37.929Z,39.81
2023-07-02T18:19:04.692Z,40.03
2023-07-02T18:21:31.381Z,40.66
2023-07-02T18:23:59.643Z,40.63
2023-07-02T18:26:26.472Z,40.84
2023-07-02T18:28:53.271Z,40.75
2023-07-02T18:31:20.709Z,40.65
2023-07-02T18:33:47.587Z,40.69
2023-07-02T18:36:17.624Z,40.69
2023-07-02T18:38:44.344Z,40.74
2023-07-02T18:41:12.496Z,41.13
2023-07-02T18:43:39.579Z,41.54
2023-07-02T18:46:07.966Z,41.65
2023-07-02T18:48:35.963Z,41.10
2023-07-02T18:51:07.331Z,41.06
2023-07-02T18:53:35.434Z,41.21
2023-07-02T18:56:07.176Z,41.76
2023-07-02T18:58:36.817Z,41.59
2023-07-02T19:01:17.911Z,41.75
2023-07-02T19:03:46.781Z,41.70
2023-07-02T19:06:13.757Z,41.79
2023-07-02T19:08:40.597Z,41.71
2023-07-02T19:11:09.083Z,41.86
2023-07-02T19:13:36.233Z,41.95
2023-07-02T19:16:03.133Z,41.91
2023-07-02T19:18:30.964Z,42.47
2023-07-02T19:21:01.488Z,42.33
2023-07-02T19:23:32.396Z,42.53
2023-07-02T19:25:59.295Z,42.95
2023-07-02T19:28:26.089Z,42.98
2023-07-02T19:31:05.342Z,42.77
2023-07-02T19:33:32.222Z,43.08
2023-07-02T19:35:59.112Z,43.34
2023-07-02T19:38:27.064Z,43.28
2023-07-02T19:40:58.160Z,43.18
2023-07-02T19:43:26.135Z,42.94
2023-07-02T19:45:53.150Z,43.16
2023-07-02T19:48:20.806Z,43.15
2023-07-02T19:50:47.590Z,43.29
2023-07-02T19:53:17.397Z,43.36
2023-07-02T19:55:44.963Z,43.77
2023-07-02T19:58:11.781Z,44.06
2023-07-02T20:00:38.504Z,43.83
2023-07-02T20:03:05.361Z,43.61
2023-07-02T20:05:34.153Z,43.40
2023-07-02T20:08:01.601Z,44.55
2023-07-02T20:10:49.911Z,44.41
2023-07-02T20:13:26.513Z,44.06
2023-07-02T20:15:58.004Z,44.23
2023-07-02T20:18:28.462Z,43.69
2023-07-02T20:20:58.337Z,42.78
2023-07-02T20:23:27.661Z,43.60
2023-07-02T20:25:54.682Z,43.01
2023-07-02T20:28:23.877Z,43.52
2023-07-02T20:30:50.607Z,43.61
2023-07-02T20:33:17.425Z,43.08
2023-07-02T20:35:45.215Z,43.40
2023-07-02T20:38:13.907Z,43.53
2023-07-02T20:40:40.746Z,43.64
2023-07-02T20:43:15.623Z,43.46
2023-07-02T20:45:44.927Z,43.27
2023-07-02T20:48:13.574Z,43.91
2023-07-02T20:50:40.234Z,43.41
2023-07-02T20:53:06.977Z,43.68
2023-07-02T20:55:33.781Z,43.79
2023-07-02T20:58:00.619Z,43.48
2023-07-02T21:00:27.470Z,43.65
2023-07-02T21:02:54.630Z,43.71
2023-07-02T21:05:21.491Z,43.64
2023-07-02T21:07:49.976Z,44.04
2023-07-02T21:10:16.938Z,43.69
2023-07-02T21:12:43.735Z,44.73
2023-07-02T21:15:10.843Z,44.51
2023-07-02T21:17:37.636Z,44.44
2023-07-02T21:20:05.444Z,44.69
2023-07-02T21:22:33.334Z,44.72
2023-07-02T21:25:00.299Z,44.62
2023-07-02T21:27:27.059Z,44.87
2023-07-02T21:29:55.184Z,44.64
2023-07-02T21:32:22.218Z,44.76
2023-07-02T21:34:48.980Z,44.93
2023-07-02T21:37:15.832Z,45.23
2023-07-02T21:39:42.957Z,45.26
2023-07-02T21:42:09.714Z,45.82
2023-07-02T21:44:36.410Z,46.42
2023-07-02T21:47:03.183Z,46.26
2023-07-02T21:49:32.005Z,46.21
2023-07-02T21:51:58.758Z,46.49
2023-07-02T21:54:25.752Z,46.42
2023-07-02T21:56:52.484Z,46.32
2023-07-02T21:59:26.688Z,47.04
2023-07-02T22:01:54.447Z,46.81
2023-07-02T22:04:21.610Z,47.24
2023-07-02T22:06:48.420Z,47.52
2023-07-02T22:09:15.135Z,47.65
2023-07-02T22:11:41.852Z,47.19
2023-07-02T22:14:08.524Z,47.75
2023-07-02T22:16:35.216Z,47.96
2023-07-02T22:19:03.499Z,47.77
2023-07-02T22:21:30.245Z,48.32
2023-07-02T22:23:57.299Z,48.84
2023-07-02T22:26:23.961Z,48.78
2023-07-02T22:28:50.755Z,48.51
2023-07-02T22:31:17.563Z,47.51
2023-07-02T22:33:44.468Z,47.23
2023-07-02T22:36:11.338Z,47.43
2023-07-02T22:38:38.052Z,46.86
2023-07-02T22:41:04.769Z,46.60
2023-07-02T22:43:31.552Z,45.68
2023-07-02T22:45:58.241Z,45.89
2023-07-02T22:48:24.895Z,45.67
2023-07-02T22:50:51.601Z,45.82
2023-07-02T22:53:18.272Z,45.26
2023-07-02T22:55:45.089Z,45.03
2023-07-02T22:58:11.968Z,44.75
2023-07-02T23:00:39.355Z,45.07
2023-07-02T23:03:06.251Z,44.99
2023-07-02T23:05:34.033Z,45.11
2023-07-02T23:08:00.825Z,45.24
2023-07-02T23:10:27.532Z,45.74
2023-07-02T23:12:54.239Z,45.50
2023-07-02T23:15:21.509Z,45.90
2023-07-02T23:17:54.056Z,45.12
2023-07-02T23:20:21.419Z,45.23
2023-07-02T23:22:49.778Z,45.51
2023-07-02T23:25:21.779Z,45.69
2023-07-02T23:27:50.341Z,45.55
2023-07-02T23:30:19.273Z,46.05
2023-07-02T23:32:47.693Z,45.98
2023-07-02T23:35:16.254Z,46.10
2023-07-02T23:37:46.512Z,46.99
2023-07-02T23:40:17.501Z,46.34
2023-07-02T23:42:45.494Z,46.39
2023-07-02T23:45:14.369Z,47.01
2023-07-02T23:47:42.318Z,46.94
2023-07-02T23:50:12.079Z,46.95
2023-07-02T23:52:39.478Z,47.06
2023-07-02T23:55:08.541Z,47.78
2023-07-02T23:57:38.662Z,47.36
